Flight Track Log - Related Links

Times and Time Zones

All times are in EDT time to prevent confusion due to time zone crossing. See the DCM6126 flight status page for this flight to view local times or setup timezone preferences in your user account.

Time Position Orientation Groundspeed Altitude Reporting Facility
EDT Latitude Longitude Course Direction KTS MPH feet Rate Location/Type
Wed 05:28:50 PM 32.7000 -97.0500 203° Southwest 121 139 800  Level Dallas / Fort Worth TRACON
Wed 05:29:44 PM 32.6667 -97.0667 203° Southwest 188 216 2,400 2,000 Climbing Dallas / Fort Worth TRACON
Wed 05:30:44 PM 32.6500 -97.1167 248° West 210 242 4,600 2,421 Climbing Dallas / Fort Worth TRACON
Wed 05:31:38 PM 32.6667 -97.1833 287° West 194 223 7,000 2,350 Climbing Dallas / Fort Worth TRACON
Wed 05:32:44 PM 32.6667 -97.2500 270° West 205 236 9,300 1,944 Climbing Dallas / Fort Worth TRACON
Wed 05:33:26 PM 32.7058 -97.2800 327° Northwest 230 265 10,500 1,706 Climbing Fort Worth Center
Wed 05:34:26 PM 32.7622 -97.2653 12° North 235 270 12,200 1,850 Climbing Fort Worth Center
Wed 05:35:26 PM 32.8292 -97.2503 11° North 235 270 14,200 1,850 Climbing Fort Worth Center
Wed 05:36:26 PM 32.8875 -97.2378 10° North 235 270 15,900 1,750 Climbing Fort Worth Center
Wed 05:37:26 PM 32.9606 -97.2228 10° North 235 270 17,700 1,550 Climbing Fort Worth Center
Wed 05:38:26 PM 33.0211 -97.2078 12° North 240 276 19,000 1,450 Climbing Fort Worth Center
Wed 05:39:26 PM 33.0983 -97.1928 North 240 276 20,600 1,500 Climbing Fort Worth Center
Wed 05:40:26 PM 33.1631 -97.1753 13° North 247 284 22,000 1,450 Climbing Fort Worth Center
Wed 05:41:26 PM 33.2403 -97.1578 11° North 252 290 23,500 1,400 Climbing Fort Worth Center
Wed 05:42:26 PM 33.3175 -97.1425 North 259 298 24,800 1,150 Climbing Fort Worth Center
Wed 05:43:26 PM 33.3819 -97.1275 11° North 264 304 25,800 1,050 Climbing Fort Worth Center
Wed 05:44:26 PM 33.4633 -97.1097 10° North 269 310 26,900 1,100 Climbing Fort Worth Center
Wed 05:45:26 PM 33.5344 -97.1019 North 275 316 28,000 1,050 Climbing Fort Worth Center
Wed 05:46:26 PM 33.6178 -97.0917 North 275 316 29,000 950 Climbing Fort Worth Center
Wed 05:47:26 PM 33.6867 -97.0814 North 275 316 29,900 1,000 Climbing Fort Worth Center
Wed 05:48:26 PM 33.7742 -97.0686 North 275 316 31,000 1,100 Climbing Fort Worth Center
Wed 05:49:26 PM 33.8472 -97.0608 North 275 316 32,100 1,000 Climbing Fort Worth Center
Wed 05:50:26 PM 33.9244 -97.0506 North 270 311 33,000 950 Climbing Fort Worth Center
Wed 05:51:26 PM 34.0017 -97.0403 North 270 311 34,000 1,000 Climbing Fort Worth Center
Wed 05:52:26 PM 34.0789 -97.0322 North 275 316 35,000 500 Climbing Fort Worth Center
Wed 05:53:26 PM 34.1561 -97.0219 North 275 316 35,000  Level Fort Worth Center
Wed 05:54:26 PM 34.2436 -97.0089 North 289 333 35,000  Level Fort Worth Center
Wed 05:55:26 PM 34.3333 -96.9986 North 302 348 35,000  Level Fort Worth Center
Wed 05:56:26 PM 34.4250 -96.9653 17° North 319 367 35,000  Level Fort Worth Center
Wed 05:57:26 PM 34.5144 -96.9069 28° Northeast 342 394 35,000  Level Fort Worth Center
Wed 05:58:26 PM 34.6019 -96.8483 29° Northeast 347 399 35,000  Level Fort Worth Center
Wed 05:59:26 PM 34.6914 -96.7897 28° Northeast 353 406 35,000  Level Fort Worth Center
Wed 06:00:26 PM 34.7808 -96.7333 27° Northeast 353 406 35,000  Level Fort Worth Center
Wed 06:01:26 PM 34.8681 -96.6744 29° Northeast 353 406 35,000  Level Fort Worth Center
Wed 06:02:26 PM 34.9553 -96.6156 29° Northeast 353 406 35,000  Level Fort Worth Center
Wed 06:03:26 PM 35.0467 -96.5564 28° Northeast 353 406 35,000  Level Fort Worth Center
Wed 06:04:26 PM 35.1339 -96.4969 29° Northeast 353 406 35,000 416 Level Fort Worth Center
Wed 06:06:48 PM 35.3356 -96.3675 28° Northeast 341 392 36,400 588 Climbing Kansas City Center
Wed 06:07:50 PM 35.4147 -96.3156 28° Northeast 330 380 37,000 290 Climbing Kansas City Center
Wed 06:08:52 PM 35.4947 -96.2597 30° Northeast 329 379 37,000  Level Kansas City Center
Wed 06:09:54 PM 35.5800 -96.2042 28° Northeast 342 394 37,000  Level Kansas City Center
Wed 06:10:56 PM 35.6664 -96.1458 29° Northeast 351 404 37,000  Level Kansas City Center
Wed 06:11:58 PM 35.7728 -96.0753 28° Northeast 360 414 37,000  Level Kansas City Center
Wed 06:13:00 PM 35.8506 -96.0225 29° Northeast 362 417 37,000  Level Kansas City Center
Wed 06:14:02 PM 35.9592 -95.9481 29° Northeast 368 423 37,000  Level Kansas City Center
Wed 06:15:04 PM 36.0492 -95.8872 29° Northeast 368 423 37,000  Level Kansas City Center
Wed 06:16:06 PM 36.1397 -95.8250 29° Northeast 370 426 37,000  Level Kansas City Center
Wed 06:17:08 PM 36.2297 -95.7650 28° Northeast 367 422 37,000  Level Kansas City Center
Wed 06:18:10 PM 36.3303 -95.7058 25° Northeast 368 423 37,000  Level Kansas City Center
Wed 06:19:12 PM 36.4236 -95.6494 26° Northeast 371 427 37,000  Level Kansas City Center
Wed 06:20:14 PM 36.5167 -95.5919 26° Northeast 373 429 37,000  Level Kansas City Center
Wed 06:21:16 PM 36.6081 -95.5356 26° Northeast 373 429 37,000  Level Kansas City Center
Wed 06:22:18 PM 36.7017 -95.4781 26° Northeast 372 428 37,000  Level Kansas City Center
Wed 06:23:20 PM 36.8136 -95.4092 26° Northeast 371 427 37,000  Level Kansas City Center
Wed 06:24:22 PM 36.9081 -95.3514 26° Northeast 374 430 37,000  Level Kansas City Center
Wed 06:25:24 PM 37.0019 -95.2936 26° Northeast 375 432 37,000  Level Kansas City Center
Wed 06:26:26 PM 37.0964 -95.2353 26° Northeast 375 432 37,000  Level Kansas City Center
Wed 06:27:28 PM 37.1908 -95.1772 26° Northeast 376 433 37,000  Level Kansas City Center
Wed 06:28:30 PM 37.2842 -95.1183 27° Northeast 376 433 37,000  Level Kansas City Center
Wed 06:29:32 PM 37.3781 -95.0611 26° Northeast 375 432 37,000  Level Kansas City Center
Wed 06:30:34 PM 37.4914 -94.9906 26° Northeast 377 434 37,000  Level Kansas City Center
Wed 06:31:36 PM 37.5856 -94.9300 27° Northeast 378 435 37,000  Level Kansas City Center
Wed 06:32:38 PM 37.6786 -94.8719 26° Northeast 381 438 37,000  Level Kansas City Center
Wed 06:33:40 PM 37.7686 -94.8125 28° Northeast 382 440 37,000  Level Kansas City Center
Wed 06:34:42 PM 37.8731 -94.7483 26° Northeast 376 433 37,000  Level Kansas City Center
Wed 06:35:44 PM 37.9622 -94.6886 28° Northeast 377 434 37,000  Level Kansas City Center
Wed 06:36:46 PM 38.0661 -94.6206 27° Northeast 377 434 37,000  Level Kansas City Center
Wed 06:37:48 PM 38.1539 -94.5639 27° Northeast 373 429 37,000  Level Kansas City Center
Wed 06:38:50 PM 38.2564 -94.4992 26° Northeast 370 426 37,000  Level Kansas City Center
Wed 06:39:52 PM 38.3375 -94.4228 36° Northeast 384 442 37,000  Level Kansas City Center
Wed 06:40:54 PM 38.4300 -94.3342 37° Northeast 377 434 37,000  Level Kansas City Center
Wed 06:41:56 PM 38.5094 -94.2564 37° Northeast 377 434 37,000  Level Kansas City Center
Wed 06:42:58 PM 38.6075 -94.1753 33° Northeast 376 433 37,000  Level Kansas City Center
Wed 06:44:00 PM 38.6961 -94.1128 29° Northeast 379 436 37,000  Level Kansas City Center
Wed 06:45:02 PM 38.7986 -94.0389 29° Northeast 379 436 37,000  Level Kansas City Center
Wed 06:46:04 PM 38.8869 -93.9756 29° Northeast 380 437 37,000 -435 Level Kansas City Center
Wed 06:47:06 PM 38.9906 -93.9008 29° Northeast 382 440 36,100 -871 Descending Kansas City Center
Wed 06:48:08 PM 39.0800 -93.8367 29° Northeast 385 443 35,200 -532 Descending Kansas City Center
Wed 06:49:10 PM 39.1836 -93.7617 29° Northeast 383 441 35,000 -98 Descending Kansas City Center
Wed 06:50:11 PM 39.2789 -93.6919 30° Northeast 384 442 35,000  Level Kansas City Center
Wed 06:51:13 PM 39.3769 -93.6222 29° Northeast 388 447 35,000 -387 Level Kansas City Center
Wed 06:52:15 PM 39.4719 -93.5539 29° Northeast 393 452 34,200 -871 Descending Kansas City Center
Wed 06:53:17 PM 39.5642 -93.4842 30° Northeast 388 447 33,200 -968 Descending Kansas City Center
Wed 06:54:19 PM 39.6550 -93.4144 31° Northeast 385 443 32,200 -968 Descending Kansas City Center
Wed 06:55:21 PM 39.7461 -93.3531 27° Northeast 375 432 31,200 -968 Descending Kansas City Center
Wed 06:56:23 PM 39.8331 -93.2867 30° Northeast 368 423 30,200 -1,016 Descending Kansas City Center
Wed 06:57:25 PM 39.9361 -93.2094 30° Northeast 361 415 29,100 -1,016 Descending Kansas City Center
Wed 06:58:27 PM 40.0222 -93.1436 30° Northeast 360 414 28,100 -968 Descending Kansas City Center
Wed 06:59:29 PM 40.1092 -93.0783 30° Northeast 361 415 27,100 -532 Descending Kansas City Center
Wed 07:00:31 PM 40.2086 -93.0053 29° Northeast 364 419 27,000 -48 Descending Kansas City Center
Wed 07:01:33 PM 40.2928 -92.9425 30° Northeast 364 419 27,000  Level Kansas City Center
Wed 07:02:35 PM 40.3900 -92.8708 29° Northeast 360 414 27,000  Level Kansas City Center
Wed 07:03:37 PM 40.4725 -92.8081 30° Northeast 359 413 27,000 -242 Level Kansas City Center
Wed 07:04:39 PM 40.5694 -92.7344 30° Northeast 359 413 26,500 -646 Descending Kansas City Center
Wed 07:05:47 PM 40.6536 -92.6686 31° Northeast 369 425 25,600 -969 Descending Chicago Center
Wed 07:06:49 PM 40.7619 -92.5864 30° Northeast 375 432 24,400 -1,065 Descending Chicago Center
Wed 07:07:51 PM 40.8472 -92.5211 30° Northeast 359 413 23,400 -968 Descending Chicago Center
Wed 07:08:53 PM 40.9308 -92.4581 30° Northeast 350 403 22,400 -960 Descending Chicago Center
Wed 07:09:56 PM 41.0122 -92.3925 31° Northeast 346 398 21,400 -960 Descending Chicago Center
Wed 07:10:58 PM 41.0942 -92.3317 29° Northeast 341 392 20,400 -1,065 Descending Chicago Center
Wed 07:12:00 PM 41.1897 -92.2567 31° Northeast 335 386 19,200 -1,210 Descending Chicago Center
Wed 07:13:02 PM 41.2597 -92.2031 30° Northeast 331 381 17,900 -1,694 Descending Chicago Center
Wed 07:14:04 PM 41.3475 -92.1331 31° Northeast 313 360 15,700 -1,839 Descending Chicago Center
Wed 07:15:06 PM 41.4181 -92.0814 29° Northeast 294 338 14,100 -1,694 Descending Chicago Center
Wed 07:16:08 PM 41.4906 -92.0225 31° Northeast 306 352 12,200 -1,742 Descending Chicago Center
Wed 07:17:10 PM 41.5644 -91.9656 30° Northeast 309 356 10,500 -1,790 Descending Chicago Center
Wed 07:18:12 PM 41.6475 -91.8922 33° Northeast 303 349 8,500 -1,742 Descending Chicago Center
Wed 07:19:14 PM 41.6981 -91.8100 51° Northeast 288 331 6,900 -1,500 Descending Chicago Center
Wed 07:20:16 PM 41.7467 -91.7336 50° Northeast 278 320 5,400 -1,500 Descending Chicago Center
Wed 07:21:18 PM 41.7933 -91.6653 47° Northeast 266 306 3,800 -1,536 Descending Chicago Center
Wed 07:22:21 PM 41.8547 -91.6653 360° North 237 273 2,200 -1,104 Descending Chicago Center
Wed 07:23:23 PM 41.8836 -91.6664 358° North 172 198 1,500 -194 Descending Chicago Center
Wed 07:24:25 PM 41.8828 -91.6433 93° East 146 168 1,800 -48 Climbing Chicago Center
Wed 07:25:27 PM 41.8844 -91.6811 273° West 141 162 1,400 -387 Descending Chicago Center

Login

Don't have an account? Register now (free) for customized features, flight alerts, and more!